Search for airport 
image banner adimage banner adimage banner ad
image banner ad

KOAK - Metropolitan Oakland Intl

Located in Oakland, United States

ICAO - OAK, IATA - OAK

Data provided by Airmate  

General information

Coordinates: N37°43'17" W122°13'16"
Elevation is 9 feet MSL.
Magnetic variation is 14° East
View others Airports in California

Operational data

Special qualification required
Current time UTC:
Current local time:
Weather
METAR: KOAK 140853Z 18005KT 1 1/2SM DZ BR BKN005 OVC010 18/17 A3000 RMK AO2 SLP159 P0000 60000 T01780167 55005
TAF: KOAK 140753Z 1408/1512 VRB05KT 4SM BR OVC006 FM141700 25006KT P6SM SCT007 FM142000 27013KT P6SM FEW010 FM150500 27007KT P6SM FEW012 FM150900 VRB04KT P6SM SCT010
View NOTAMs / SUP AIP / TFR affecting this airport [VIEW]
Communications frequencies: [VIEW]

Runways:

RWY identifierQFULength (ft)Width (ft)SurfaceLDA (ft)
15164°337675ASPH
33344°337675ASPH
10L112°5458150ASPH5336
10R112°6213150ASPH6213
12130°10520150ASPH10000
28L292°6213150ASPH6213
28R292°5458150ASPH5458
30310°10520150ASPH10000

Airport contact information

Address: Oakland United States

Other aviation service providers

Flight schools

Oakland Flyers, Llc

Oakland Flyers, Llc
info@oaklandflyers.com+1(510)568-3317

Satellite view of KOAK